createdAt,value
2023-04-29T00:02:56.221Z,96293.53
2023-04-29T00:07:59.205Z,96288.41
2023-04-29T00:13:03.427Z,96285.69
2023-04-29T00:18:06.313Z,96262.66
2023-04-29T00:23:09.149Z,96259.94
2023-04-29T00:28:13.609Z,96261.56
2023-04-29T00:33:16.466Z,96273.78
2023-04-29T00:38:19.532Z,96272.97
2023-04-29T00:43:24.321Z,96268.63
2023-04-29T00:48:27.582Z,96261.88
2023-04-29T00:53:30.859Z,96252.94
2023-04-29T00:58:35.955Z,96258.38
2023-04-29T01:03:39.405Z,96255.34
2023-04-29T01:08:52.270Z,96253.75
2023-04-29T01:14:00.321Z,96243.16
2023-04-29T01:19:04.377Z,96245.09
2023-04-29T01:24:08.632Z,96243.47
2023-04-29T01:29:24.859Z,96246.19
2023-04-29T01:34:33.306Z,96252.16
2023-04-29T01:39:45.701Z,96240.50
2023-04-29T01:44:50.042Z,96235.06
2023-04-29T01:49:53.046Z,96231.56
2023-04-29T01:54:57.553Z,96240.50
2023-04-29T02:00:00.874Z,96247.84
2023-04-29T02:05:03.688Z,96252.44
2023-04-29T02:10:08.973Z,96243.50
2023-04-29T02:15:12.109Z,96239.97
2023-04-29T02:20:15.129Z,96241.09
2023-04-29T02:25:19.440Z,96229.41
2023-04-29T02:30:22.336Z,96242.97
2023-04-29T02:35:25.318Z,96247.88
2023-04-29T02:40:29.518Z,96254.41
2023-04-29T02:45:32.403Z,96269.06
2023-04-29T02:50:35.591Z,96277.19
2023-04-29T02:55:39.868Z,96283.16
2023-04-29T03:00:42.937Z,96290.50
2023-04-29T03:05:45.823Z,96294.84
2023-04-29T03:10:49.983Z,96297.84
2023-04-29T03:15:52.854Z,96293.50
2023-04-29T03:20:55.709Z,96288.09
2023-04-29T03:26:00.716Z,96282.94
2023-04-29T03:31:04.423Z,96285.66
2023-04-29T03:36:08.687Z,96281.31
2023-04-29T03:41:13.068Z,96286.19
2023-04-29T03:46:16.021Z,96282.19
2023-04-29T03:51:18.895Z,96273.47
2023-04-29T03:56:25.348Z,96283.50
2023-04-29T04:01:28.989Z,96272.94
2023-04-29T04:06:33.461Z,96272.94
2023-04-29T04:11:37.645Z,96268.63
2023-04-29T04:16:40.562Z,96272.69
2023-04-29T04:21:43.465Z,96270.25
2023-04-29T04:26:47.587Z,96265.94
2023-04-29T04:31:50.591Z,96268.66
2023-04-29T04:36:53.447Z,96270.53
2023-04-29T04:41:57.722Z,96267.56
2023-04-29T04:47:02.270Z,96280.28
2023-04-29T04:52:05.523Z,96284.09
2023-04-29T04:57:09.637Z,96282.22
2023-04-29T05:02:12.537Z,96299.56
2023-04-29T05:07:15.485Z,96302.28
2023-04-29T05:12:19.661Z,96300.94
2023-04-29T05:17:23.044Z,96284.94
2023-04-29T05:22:26.170Z,96294.69
2023-04-29T05:27:30.430Z,96301.22
2023-04-29T05:32:33.447Z,96303.91
2023-04-29T05:37:36.669Z,96302.00
2023-04-29T05:42:40.794Z,96303.09
2023-04-29T05:47:43.661Z,96308.00
2023-04-29T05:52:46.510Z,96303.94
2023-04-29T05:57:50.624Z,96308.56
2023-04-29T06:02:58.716Z,96305.03
2023-04-29T06:08:02.348Z,96307.22
2023-04-29T06:13:06.482Z,96312.63
2023-04-29T06:18:09.304Z,96312.63
2023-04-29T06:23:12.851Z,96301.78
2023-04-29T06:28:17.553Z,96307.50
2023-04-29T06:33:21.191Z,96317.53
2023-04-29T06:38:24.337Z,96315.91
2023-04-29T06:43:28.571Z,96319.16
2023-04-29T06:48:31.805Z,96324.56
2023-04-29T06:53:34.602Z,96331.09
2023-04-29T06:58:39.488Z,96330.00
2023-04-29T07:03:43.899Z,96336.22
2023-04-29T07:08:47.063Z,96341.66
2023-04-29T07:13:51.274Z,96335.41
2023-04-29T07:18:54.698Z,96337.84
2023-04-29T07:23:59.265Z,96334.03
2023-04-29T07:29:03.443Z,96334.28
2023-04-29T07:34:06.394Z,96342.66
2023-04-29T07:39:09.356Z,96340.50
2023-04-29T07:44:13.701Z,96341.28
2023-04-29T07:49:16.813Z,96334.81
2023-04-29T07:54:19.758Z,96335.59
2023-04-29T07:59:24.168Z,96343.72
2023-04-29T08:04:27.282Z,96342.94
2023-04-29T08:09:30.580Z,96344.56
2023-04-29T08:14:34.794Z,96344.28
2023-04-29T08:19:37.929Z,96355.13
2023-04-29T08:24:42.754Z,96354.56
2023-04-29T08:29:47.376Z,96352.66
2023-04-29T08:34:50.474Z,96349.13
2023-04-29T08:39:53.296Z,96347.75
2023-04-29T08:44:57.641Z,96345.56
2023-04-29T08:50:03.999Z,96352.63
2023-04-29T08:55:08.052Z,96342.28
2023-04-29T09:00:13.306Z,96346.03
2023-04-29T09:05:16.511Z,96362.03
2023-04-29T09:10:19.835Z,96369.66
2023-04-29T09:15:24.052Z,96375.34
2023-04-29T09:20:28.412Z,96371.28
2023-04-29T09:25:31.589Z,96363.69
2023-04-29T09:30:47.054Z,96369.91
2023-04-29T09:35:50.017Z,96376.66
2023-04-29T09:40:59.421Z,96374.75
2023-04-29T09:46:04.212Z,96378.53
2023-04-29T09:51:07.251Z,96376.38
2023-04-29T09:56:10.122Z,96372.81
2023-04-29T10:01:18.032Z,96374.69
2023-04-29T10:06:21.402Z,96375.47
2023-04-29T10:11:24.508Z,96381.13
2023-04-29T10:16:31.279Z,96376.50
2023-04-29T10:21:34.850Z,96378.94
2023-04-29T10:26:40.591Z,96376.50
2023-04-29T10:31:45.762Z,96381.13
2023-04-29T10:36:49.436Z,96392.00
2023-04-29T10:41:52.678Z,96401.50
2023-04-29T10:47:23.925Z,96397.16
2023-04-29T10:52:28.801Z,96399.06
2023-04-29T10:57:31.619Z,96390.94
2023-04-29T11:02:35.924Z,96378.50
2023-04-29T11:07:38.832Z,96390.94
2023-04-29T11:12:41.656Z,96400.47
2023-04-29T11:17:47.937Z,96386.09
2023-04-29T11:22:53.290Z,96381.72
2023-04-29T11:27:56.836Z,96390.09
2023-04-29T11:33:01.707Z,96377.63
2023-04-29T11:38:05.777Z,96375.13
2023-04-29T11:43:09.714Z,96375.09
2023-04-29T11:48:19.384Z,96365.56
2023-04-29T11:53:22.956Z,96363.94
2023-04-29T11:58:25.989Z,96363.94
2023-04-29T12:03:30.254Z,96366.34
2023-04-29T12:08:34.843Z,96377.22
2023-04-29T12:13:37.710Z,96368.22
2023-04-29T12:18:41.921Z,96370.09
2023-04-29T12:23:45.323Z,96361.13
2023-04-29T12:28:50.388Z,96361.06
2023-04-29T12:33:57.530Z,96357.81
2023-04-29T12:39:00.433Z,96360.78
2023-04-29T12:44:04.189Z,96365.94
2023-04-29T12:49:09.132Z,96368.63
2023-04-29T12:54:12.125Z,96362.94
2023-04-29T12:59:15.002Z,96357.78
2023-04-29T13:04:19.227Z,96349.41
2023-04-29T13:09:22.081Z,96357.00
2023-04-29T13:14:25.092Z,96355.34
2023-04-29T13:19:44.042Z,96352.63
2023-04-29T13:24:50.839Z,96355.63
2023-04-29T13:29:53.672Z,96357.00
2023-04-29T13:34:57.865Z,96349.72
2023-04-29T13:40:01.909Z,96341.59
2023-04-29T13:45:05.911Z,96336.44
2023-04-29T13:50:56.842Z,96330.72
2023-04-29T14:05:47.574Z,96324.16
2023-04-29T14:10:50.602Z,96334.44
2023-04-29T14:15:54.369Z,96334.09
2023-04-29T14:20:59.590Z,96331.09
2023-04-29T14:26:22.288Z,96336.03
2023-04-29T14:31:25.614Z,96326.78
2023-04-29T14:36:29.792Z,96320.50
2023-04-29T14:41:32.631Z,96320.75
2023-04-29T14:46:35.571Z,96318.63
2023-04-29T14:51:39.733Z,96327.63
2023-04-29T14:56:42.669Z,96323.34
2023-04-29T15:01:45.536Z,96327.69
2023-04-29T15:06:50.256Z,96329.06
2023-04-29T15:11:53.083Z,96335.59
2023-04-29T15:16:56.079Z,96334.00
2023-04-29T15:22:00.293Z,96332.06
2023-04-29T15:27:03.350Z,96329.84
2023-04-29T15:32:06.848Z,96323.78
2023-04-29T15:37:11.018Z,96318.94
2023-04-29T15:42:13.859Z,96321.44
2023-04-29T15:47:16.776Z,96313.06
2023-04-29T15:52:20.912Z,96317.16
2023-04-29T15:57:23.756Z,96312.00
2023-04-29T16:02:26.654Z,96311.50
2023-04-29T16:07:31.122Z,96307.16
2023-04-29T16:12:33.971Z,96309.59
2023-04-29T16:17:36.979Z,96305.16
2023-04-29T16:22:41.470Z,96298.94
2023-04-29T16:27:44.337Z,96293.69
2023-04-29T16:32:47.888Z,96287.16
2023-04-29T16:37:54.213Z,96281.50
2023-04-29T16:42:57.812Z,96279.03
2023-04-29T16:48:01.601Z,96276.16
2023-04-29T16:53:05.975Z,96275.78
2023-04-29T16:58:09.317Z,96281.59
2023-04-29T17:03:12.934Z,96266.22
2023-04-29T17:08:17.368Z,96258.63
2023-04-29T17:13:20.878Z,96252.75
2023-04-29T17:18:23.837Z,96253.94
2023-04-29T17:23:28.040Z,96238.50
2023-04-29T17:28:30.966Z,96254.47
2023-04-29T17:33:35.432Z,96256.47
2023-04-29T17:38:40.922Z,96258.25
2023-04-29T17:43:43.747Z,96252.16
2023-04-29T17:48:46.957Z,96251.72
2023-04-29T17:58:54.022Z,96246.66
2023-04-29T18:03:56.896Z,96260.09
2023-04-29T18:09:01.101Z,96257.69
2023-04-29T18:14:04.808Z,96253.22
2023-04-29T18:19:07.677Z,96251.66
2023-04-29T18:24:11.849Z,96248.22
2023-04-29T18:29:14.675Z,96262.63
2023-04-29T18:34:17.553Z,96264.63
2023-04-29T18:39:21.738Z,96267.66
2023-04-29T18:44:26.102Z,96275.59
2023-04-29T18:49:30.240Z,96277.56
2023-04-29T18:54:34.600Z,96274.91
2023-04-29T18:59:38.060Z,96285.53
2023-04-29T19:04:41.100Z,96289.63
2023-04-29T19:09:45.335Z,96286.97
2023-04-29T19:14:48.198Z,96288.59
2023-04-29T19:19:51.049Z,96288.34
2023-04-29T19:24:55.729Z,96288.69
2023-04-29T19:29:58.573Z,96288.69
2023-04-29T19:35:01.360Z,96303.94
2023-04-29T19:40:06.597Z,96296.06
2023-04-29T19:45:10.295Z,96298.25
2023-04-29T19:50:13.131Z,96300.22
2023-04-29T19:55:17.614Z,96304.81
2023-04-29T20:00:20.580Z,96304.56
2023-04-29T20:05:23.490Z,96308.16
2023-04-29T20:10:29.931Z,96309.53
2023-04-29T20:15:33.019Z,96316.38
2023-04-29T20:20:35.869Z,96331.84
2023-04-29T20:25:40.067Z,96340.81
2023-04-29T20:30:42.922Z,96347.91
2023-04-29T20:35:45.813Z,96345.25
2023-04-29T20:40:53.512Z,96341.97
2023-04-29T20:45:58.244Z,96347.16
2023-04-29T20:51:01.080Z,96343.06
2023-04-29T20:56:05.501Z,96336.88
2023-04-29T21:01:08.971Z,96349.91
2023-04-29T21:06:11.808Z,96353.19
2023-04-29T21:11:15.966Z,96353.19
2023-04-29T21:16:19.041Z,96352.38
2023-04-29T21:21:23.158Z,96356.16
2023-04-29T21:26:27.322Z,96352.41
2023-04-29T21:31:30.923Z,96338.59
2023-04-29T21:36:33.855Z,96348.63
2023-04-29T21:41:39.861Z,96344.59
2023-04-29T21:46:42.684Z,96349.50
2023-04-29T21:51:45.679Z,96354.34
2023-04-29T21:56:49.856Z,96351.41
2023-04-29T22:02:00.115Z,96341.91
2023-04-29T22:07:03.214Z,96348.16
2023-04-29T22:12:07.461Z,96354.41
2023-04-29T22:17:10.881Z,96373.13
2023-04-29T22:22:13.684Z,96369.38
2023-04-29T22:27:17.817Z,96376.16
2023-04-29T22:32:20.752Z,96371.53
2023-04-29T22:37:23.618Z,96370.50
2023-04-29T22:42:27.748Z,96376.47
2023-04-29T22:47:31.160Z,96379.19
2023-04-29T22:52:33.996Z,96380.78
2023-04-29T22:57:38.238Z,96381.63
2023-04-29T23:02:41.258Z,96377.03
2023-04-29T23:07:44.058Z,96386.53
2023-04-29T23:12:48.221Z,96387.06
2023-04-29T23:17:51.159Z,96375.72
2023-04-29T23:22:54.047Z,96381.94
2023-04-29T23:27:58.238Z,96381.13
2023-04-29T23:33:01.176Z,96375.44
2023-04-29T23:38:04.059Z,96368.94
2023-04-29T23:43:08.237Z,96367.31
2023-04-29T23:48:12.087Z,96371.66
2023-04-29T23:53:15.733Z,96372.22
2023-04-29T23:58:20.011Z,96375.97
